Time;durP1;ratioP1;P1;durP2;ratioP2;P2;SDS_P1;SDS_P2;PMS_P1;PMS_P2;Temp;Humidity;BMP_temperature;BMP_pressure;BME280_temperature;BME280_humidity;BME280_pressure;Samples;Min_cycle;Max_cycle;Signal;HPM_P1;HPM_P2
2022/10/23 00:00:44;;;;;;;;;;;;;;;18.79;69.15;101002.97;2324981;76;50768;-74
2022/10/23 00:03:46;;;;;;;;;;;;;;;18.79;69.17;101006.98;2298449;76;51505;-73
2022/10/23 00:06:47;;;;;;;;;;;;;;;18.79;69.15;100998.94;2298893;75;50109;-74
2022/10/23 00:09:49;;;;;;;;;;;;;;;18.79;69.15;101004.30;2300550;76;50179;-73
2022/10/23 00:12:51;;;;;;;;;;;;;;;18.80;69.15;101003.28;2299180;77;50335;-74
2022/10/23 00:15:52;;;;;;;;;;;;;;;18.78;69.19;101009.35;2300325;77;50780;-73
2022/10/23 00:18:54;;;;;;;;;;;;;;;18.78;69.18;101005.81;2327111;76;50287;-73
2022/10/23 00:21:55;;;;;;;;;;;;;;;18.78;69.18;101010.69;2328052;76;51621;-73
2022/10/23 00:24:57;;;;;;;;;;;;;;;18.78;69.16;101017.39;2328264;76;50931;-72
2022/10/23 00:27:59;;;;;;;;;;;;;;;18.78;69.17;101022.75;2302081;77;50934;-73
2022/10/23 00:31:02;;;;;;;;;;;;;;;18.80;69.15;101017.20;2278160;77;50421;-74
2022/10/23 00:34:06;;;;;;;;;;;;;;;18.78;69.17;101024.09;2302177;77;50896;-73
2022/10/23 00:37:06;;;;;;;;;;;;;;;18.81;69.09;101027.76;2312667;75;22242;-73
2022/10/23 00:40:09;;;;;;;;;;;;;;;18.79;69.13;101029.77;2312610;76;50748;-74
2022/10/23 00:43:12;;;;;;;;;;;;;;;18.79;69.16;101028.44;2310807;77;51880;-74
2022/10/23 00:46:13;;;;;;;;;;;;;;;18.79;69.38;101027.09;2311980;75;50403;-74
2022/10/23 00:49:15;;;;;;;;;;;;;;;18.75;69.46;101031.13;2337819;75;50654;-74
2022/10/23 00:52:16;;;;;;;;;;;;;;;18.73;69.48;101034.47;2313297;77;50721;-74
2022/10/23 00:55:18;;;;;;;;;;;;;;;18.74;69.48;101022.73;2277942;77;51848;-74
2022/10/23 00:58:20;;;;;;;;;;;;;;;18.77;69.37;101026.94;2310474;76;50351;-74
2022/10/23 01:01:22;;;;;;;;;;;;;;;18.78;69.38;101028.11;2310377;77;50415;-74
2022/10/23 01:04:23;;;;;;;;;;;;;;;18.78;69.37;101027.25;2310459;76;50385;-75
2022/10/23 01:07:38;;;;;;;;;;;;;;;18.78;69.34;101022.75;2289171;77;52476;-74
2022/10/23 01:10:42;;;;;;;;;;;;;;;18.78;69.34;101026.77;2310620;77;50843;-74
2022/10/23 01:13:51;;;;;;;;;;;;;;;18.78;69.31;101031.27;2309483;77;50788;-73
2022/10/23 01:17:00;;;;;;;;;;;;;;;18.76;69.28;101030.13;2309574;76;51695;-73
2022/10/23 01:20:06;;;;;;;;;;;;;;;18.77;69.35;101026.94;2274360;77;50138;-74
2022/10/23 01:23:18;;;;;;;;;;;;;;;18.76;69.39;101026.11;2309549;77;51594;-74
2022/10/23 01:26:34;;;;;;;;;;;;;;;18.79;69.21;101032.45;2309015;77;50387;-74
2022/10/23 01:29:37;;;;;;;;;;;;;;;18.78;69.35;101026.77;2309513;77;51542;-73
2022/10/23 01:32:59;;;;;;;;;;;;;;;18.78;69.34;101025.44;2264000;77;50309;-74
2022/10/23 01:36:05;;;;;;;;;;;;;;;18.79;69.37;101029.77;2294496;77;50377;-74
2022/10/23 01:39:17;;;;;;;;;;;;;;;18.80;69.37;101034.63;2326684;75;51599;-73
2022/10/23 01:42:20;;;;;;;;;;;;;;;18.78;69.57;101037.50;2337141;75;51537;-73
2022/10/23 01:45:27;;;;;;;;;;;;;;;18.78;69.47;101036.16;2312275;76;50278;-73
2022/10/23 01:48:28;;;;;;;;;;;;;;;18.78;69.41;101037.98;2334958;76;50266;-73
2022/10/23 01:51:30;;;;;;;;;;;;;;;18.77;69.46;101038.48;2337673;76;50397;-74
2022/10/23 01:54:33;;;;;;;;;;;;;;;18.77;69.34;101039.83;2337392;76;50409;-74
2022/10/23 01:57:34;;;;;;;;;;;;;;;18.76;69.40;101039.52;2312636;76;51074;-74
2022/10/23 02:00:36;;;;;;;;;;;;;;;18.75;69.42;101039.16;2337553;76;51508;-73
2022/10/23 02:03:37;;;;;;;;;;;;;;;18.77;69.34;101034.47;2337474;75;50250;-75
2022/10/23 02:06:39;;;;;;;;;;;;;;;18.76;69.34;101032.81;2300057;76;50476;-73
2022/10/23 02:09:41;;;;;;;;;;;;;;;18.78;69.28;101037.50;2269454;77;49576;-73
2022/10/23 02:12:44;;;;;;;;;;;;;;;18.77;69.23;101027.77;2291274;77;50770;-74
2022/10/23 02:15:46;;;;;;;;;;;;;;;18.75;69.30;101027.09;2290348;77;50756;-74
2022/10/23 02:18:52;;;;;;;;;;;;;;;18.76;69.28;101023.94;2291308;77;50202;-74
2022/10/23 02:21:55;;;;;;;;;;;;;;;18.75;69.27;101028.44;2269448;77;52676;-74
2022/10/23 02:25:01;;;;;;;;;;;;;;;18.76;69.22;101028.79;2291001;77;50478;-74
2022/10/23 02:28:04;;;;;;;;;;;;;;;18.76;69.45;101030.64;2290945;77;51497;-74
2022/10/23 02:31:06;;;;;;;;;;;;;;;18.79;69.43;101024.92;2291384;77;50735;-73
2022/10/23 02:34:07;;;;;;;;;;;;;;;18.79;69.30;101032.45;2269174;77;50766;-73
2022/10/23 02:37:09;;;;;;;;;;;;;;;18.77;69.37;101030.45;2299742;76;51571;-73
2022/10/23 02:40:11;;;;;;;;;;;;;;;18.77;69.42;101025.09;2298276;77;51498;-74
2022/10/23 02:43:17;;;;;;;;;;;;;;;18.79;69.37;101022.24;2298318;77;51474;-74
2022/10/23 02:46:23;;;;;;;;;;;;;;;18.78;69.44;101021.41;2272104;77;52695;-74
2022/10/23 02:49:26;;;;;;;;;;;;;;;18.78;69.38;101024.09;2298252;77;50338;-73
2022/10/23 02:52:32;;;;;;;;;;;;;;;18.79;69.22;101029.77;2298270;77;50295;-74
2022/10/23 02:55:41;;;;;;;;;;;;;;;18.80;69.18;101017.20;2298001;77;50422;-74
2022/10/23 02:58:44;;;;;;;;;;;;;;;18.78;69.27;101023.23;2273985;77;50208;-74
2022/10/23 03:01:52;;;;;;;;;;;;;;;18.79;69.10;101024.41;2270345;77;50487;-74
2022/10/23 03:04:54;;;;;;;;;;;;;;;18.79;69.11;101028.95;2297996;77;51470;-73
2022/10/23 03:07:56;;;;;;;;;;;;;;;18.79;69.32;101026.27;2298099;76;50319;-73
2022/10/23 03:10:57;;;;;;;;;;;;;;;18.78;69.26;101016.05;2274124;77;51278;-74
2022/10/23 03:13:59;;;;;;;;;;;;;;;18.79;69.23;101016.37;2325597;75;50289;-73
2022/10/23 03:17:00;;;;;;;;;;;;;;;18.78;69.27;101006.67;2325445;76;50722;-73
2022/10/23 03:20:02;;;;;;;;;;;;;;;18.78;69.27;101008.01;2312860;76;51512;-73
2022/10/23 03:23:03;;;;;;;;;;;;;;;18.77;69.37;101017.55;2287423;76;51865;-73
2022/10/23 03:26:05;;;;;;;;;;;;;;;18.78;69.28;101013.85;2302029;76;51606;-74
2022/10/23 03:29:07;;;;;;;;;;;;;;;18.78;69.13;101010.69;2286965;76;51597;-73
2022/10/23 03:32:08;;;;;;;;;;;;;;;18.78;69.21;101014.71;2324541;76;51524;-74
2022/10/23 03:35:10;;;;;;;;;;;;;;;18.80;69.22;101029.27;2270704;77;50949;-73
2022/10/23 03:38:11;;;;;;;;;;;;;;;18.78;69.25;101022.75;2298329;77;50248;-74
2022/10/23 03:41:13;;;;;;;;;;;;;;;18.79;69.27;101024.41;2324443;76;50451;-73
2022/10/23 03:44:14;;;;;;;;;;;;;;;18.76;69.47;101019.41;2298062;77;50364;-74
2022/10/23 03:47:16;;;;;;;;;;;;;;;18.79;69.14;101021.73;2297896;76;51790;-74
2022/10/23 03:50:18;;;;;;;;;;;;;;;18.77;69.39;101023.74;2298276;77;50725;-74
2022/10/23 03:53:19;;;;;;;;;;;;;;;18.75;69.46;101029.78;2298020;77;50252;-74
2022/10/23 03:56:21;;;;;;;;;;;;;;;18.77;69.32;101033.13;2325918;76;50697;-73
2022/10/23 03:59:23;;;;;;;;;;;;;;;18.78;69.29;101025.44;2291253;76;50973;-73
2022/10/23 04:02:24;;;;;;;;;;;;;;;18.79;69.23;101029.77;2312864;75;51519;-74
2022/10/23 04:05:26;;;;;;;;;;;;;;;18.77;69.21;101030.45;2337612;76;51512;-74
2022/10/23 04:08:27;;;;;;;;;;;;;;;18.78;69.27;101032.14;2337723;76;51512;-74
2022/10/23 04:11:29;;;;;;;;;;;;;;;18.76;69.33;101031.47;2312740;76;49571;-73
2022/10/23 04:14:30;;;;;;;;;;;;;;;18.78;69.27;101035.30;2312522;75;50071;-73
2022/10/23 04:17:32;;;;;;;;;;;;;;;18.77;69.23;101030.95;2312836;76;50350;-73
2022/10/23 04:20:34;;;;;;;;;;;;;;;18.76;69.39;101028.79;2312857;75;50731;-74
2022/10/23 04:23:35;;;;;;;;;;;;;;;18.76;69.26;101030.13;2287175;76;52670;-73
2022/10/23 04:26:37;;;;;;;;;;;;;;;18.76;69.24;101030.13;2304929;76;51449;-74
2022/10/23 04:29:38;;;;;;;;;;;;;;;18.76;69.31;101027.45;2308630;76;51528;-74
2022/10/23 04:32:40;;;;;;;;;;;;;;;18.77;69.23;101025.09;2276014;77;51575;-74
2022/10/23 04:35:41;;;;;;;;;;;;;;;18.77;69.23;101021.06;2275726;77;49609;-72
2022/10/23 04:38:43;;;;;;;;;;;;;;;18.77;69.13;101017.05;2276040;77;50406;-75
2022/10/23 04:41:45;;;;;;;;;;;;;;;18.77;69.06;101019.72;2309601;77;50742;-74
2022/10/23 04:44:46;;;;;;;;;;;;;;;18.77;69.06;101022.41;2276075;77;50751;-75
2022/10/23 04:47:48;;;;;;;;;;;;;;;18.78;69.05;101027.25;2309687;77;51526;-74
2022/10/23 04:50:56;;;;;;;;;;;;;;;18.77;69.10;101021.58;2275908;77;52547;-74
2022/10/23 04:53:58;;;;;;;;;;;;;;;18.76;69.05;101028.79;2275965;77;51630;-74
2022/10/23 04:56:59;;;;;;;;;;;;;;;18.77;68.87;101029.11;2313788;76;50396;-74
2022/10/23 05:00:01;;;;;;;;;;;;;;;18.76;68.79;101026.62;2351973;75;50777;-74
2022/10/23 05:03:03;;;;;;;;;;;;;;;18.78;68.78;101028.59;2312383;76;52506;-74
2022/10/23 05:06:04;;;;;;;;;;;;;;;18.78;68.61;101028.11;2337484;76;51520;-73
2022/10/23 05:09:06;;;;;;;;;;;;;;;18.79;68.59;101025.75;2312732;76;50698;-74
2022/10/23 05:12:07;;;;;;;;;;;;;;;18.79;68.51;101029.77;2312671;76;51534;-76
2022/10/23 05:15:09;;;;;;;;;;;;;;;18.81;68.48;101016.20;2312316;75;52502;-76
2022/10/23 05:18:13;;;;;;;;;;;;;;;18.83;68.65;101026.22;2312764;76;51521;-74
2022/10/23 05:21:16;;;;;;;;;;;;;;;18.81;68.78;101022.91;2337638;75;51559;-74
2022/10/23 05:24:17;;;;;;;;;;;;;;;18.80;68.54;101020.70;2337473;76;51495;-73
2022/10/23 05:27:19;;;;;;;;;;;;;;;18.84;68.28;101018.53;2263597;77;51233;-73
2022/10/23 05:30:21;;;;;;;;;;;;;;;18.82;68.34;101026.73;2300288;77;50411;-73
2022/10/23 05:33:22;;;;;;;;;;;;;;;18.81;68.29;101021.05;2297920;76;50338;-73
2022/10/23 05:36:24;;;;;;;;;;;;;;;18.82;68.20;101018.69;2298115;77;50803;-74
2022/10/23 05:39:25;;;;;;;;;;;;;;;18.82;68.18;101030.76;2273842;77;52561;-73
2022/10/23 05:42:27;;;;;;;;;;;;;;;18.79;68.22;101028.44;2298272;77;51539;-73
2022/10/23 05:45:28;;;;;;;;;;;;;;;18.79;68.16;101032.45;2297949;77;51534;-73
2022/10/23 05:48:30;;;;;;;;;;;;;;;18.81;68.19;101034.97;2298268;76;51538;-73
2022/10/23 05:51:32;;;;;;;;;;;;;;;18.81;68.15;101023.73;2274235;77;51277;-73
2022/10/23 05:54:33;;;;;;;;;;;;;;;18.82;68.14;101038.80;2324275;76;50398;-73
2022/10/23 05:57:35;;;;;;;;;;;;;;;18.80;68.31;101039.98;2333881;75;50715;-73
2022/10/23 06:00:36;;;;;;;;;;;;;;;18.81;68.48;101036.31;2274253;77;50800;-73
2022/10/23 06:03:38;;;;;;;;;;;;;;;18.82;68.54;101041.48;2297053;77;53447;-74
2022/10/23 06:06:39;;;;;;;;;;;;;;;18.87;68.61;101040.45;2313809;76;50673;-75
2022/10/23 06:09:41;;;;;;;;;;;;;;;18.91;68.69;101031.05;2302458;77;51512;-74
2022/10/23 06:12:43;;;;;;;;;;;;;;;18.90;68.91;101028.54;2299533;77;50706;-74
2022/10/23 06:15:45;;;;;;;;;;;;;;;18.88;68.95;101022.03;2273554;77;50935;-73
2022/10/23 06:18:46;;;;;;;;;;;;;;;18.86;69.16;101032.09;2299838;77;51628;-73
2022/10/23 06:21:48;;;;;;;;;;;;;;;18.85;69.28;101027.72;2305391;77;50730;-74
2022/10/23 06:24:50;;;;;;;;;;;;;;;18.84;69.24;101027.41;2325727;76;50088;-74
2022/10/23 06:27:51;;;;;;;;;;;;;;;18.83;69.21;101028.42;2246825;77;49540;-73
2022/10/23 06:30:53;;;;;;;;;;;;;;;18.83;69.28;101030.25;2271662;77;50816;-74
2022/10/23 06:33:54;;;;;;;;;;;;;;;18.83;69.24;101021.72;2270650;77;51553;-73
2022/10/23 06:36:56;;;;;;;;;;;;;;;18.82;69.21;101026.73;2311228;76;50359;-73
2022/10/23 06:39:58;;;;;;;;;;;;;;;18.82;69.25;101020.03;2272446;77;49699;-73
2022/10/23 06:42:59;;;;;;;;;;;;;;;18.81;69.19;101026.42;2273580;77;51548;-73
2022/10/23 06:46:02;;;;;;;;;;;;;;;18.81;69.16;101025.08;2297533;77;51547;-74
2022/10/23 06:49:03;;;;;;;;;;;;;;;18.82;69.17;101032.09;2324319;76;50153;-74
2022/10/23 06:52:05;;;;;;;;;;;;;;;18.84;69.14;101038.64;2274181;77;50094;-74
2022/10/23 06:55:06;;;;;;;;;;;;;;;18.85;69.07;101051.02;2297968;76;51555;-74
2022/10/23 06:58:09;;;;;;;;;;;;;;;18.86;69.03;101048.18;2326055;76;50671;-74
2022/10/23 07:01:11;;;;;;;;;;;;;;;18.85;69.00;101046.48;2307773;77;51534;-74
2022/10/23 07:04:13;;;;;;;;;;;;;;;18.84;68.97;101050.19;2299575;77;50141;-74
2022/10/23 07:07:14;;;;;;;;;;;;;;;18.87;69.77;101055.20;2308268;76;50795;-74
2022/10/23 07:10:16;;;;;;;;;;;;;;;18.87;69.63;101046.33;2298200;76;51539;-74
2022/10/23 07:13:18;;;;;;;;;;;;;;;18.89;69.42;101042.45;2324344;76;50718;-74
2022/10/23 07:16:20;;;;;;;;;;;;;;;18.89;69.65;101043.80;2297682;77;50991;-74
2022/10/23 07:19:21;;;;;;;;;;;;;;;18.89;69.73;101043.80;2324337;76;50141;-73
2022/10/23 07:22:23;;;;;;;;;;;;;;;18.89;69.43;101046.48;2324502;76;50398;-74
2022/10/23 07:25:25;;;;;;;;;;;;;;;18.88;69.23;101046.16;2298056;76;50656;-74
2022/10/23 07:28:27;;;;;;;;;;;;;;;18.88;69.17;101040.80;2297735;77;49674;-74
2022/10/23 07:31:28;;;;;;;;;;;;;;;18.90;69.03;101048.14;2304423;76;50113;-73
2022/10/23 07:34:30;;;;;;;;;;;;;;;18.93;68.73;101048.30;2297829;76;50711;-74
2022/10/23 07:37:32;;;;;;;;;;;;;;;18.89;68.92;101039.78;2305803;76;50342;-73
2022/10/23 07:40:34;;;;;;;;;;;;;;;18.90;68.83;101049.48;2271000;77;49641;-73
2022/10/23 07:43:35;;;;;;;;;;;;;;;18.90;68.70;101038.75;2269284;77;50361;-74
2022/10/23 07:46:37;;;;;;;;;;;;;;;18.90;68.67;101049.48;2269475;77;50112;-74
2022/10/23 07:49:38;;;;;;;;;;;;;;;18.91;68.81;101042.30;2269450;77;51897;-75
2022/10/23 07:52:40;;;;;;;;;;;;;;;18.88;69.14;101038.13;2273897;77;49796;-74
2022/10/23 07:55:42;;;;;;;;;;;;;;;18.89;69.43;101040.29;2324288;76;50813;-74
2022/10/23 07:58:43;;;;;;;;;;;;;;;18.90;69.32;101041.44;2328689;75;51512;-74
2022/10/23 08:01:46;;;;;;;;;;;;;;;18.90;69.03;101041.44;2309854;77;50618;-73
2022/10/23 08:04:48;;;;;;;;;;;;;;;18.92;68.77;101046.13;2249837;77;49691;-73
2022/10/23 08:07:50;;;;;;;;;;;;;;;18.92;68.65;101032.72;2276211;77;53971;-74
2022/10/23 08:10:52;;;;;;;;;;;;;;;18.95;68.49;101036.06;2276825;77;50346;-73
2022/10/23 08:13:57;;;;;;;;;;;;;;;18.95;68.43;101038.75;2309964;77;50858;-73
2022/10/23 08:16:58;;;;;;;;;;;;;;;18.94;68.39;101039.26;2278232;77;51856;-74
2022/10/23 08:20:00;;;;;;;;;;;;;;;18.95;68.36;101036.06;2312555;77;50740;-74
2022/10/23 08:23:01;;;;;;;;;;;;;;;18.95;68.31;101041.42;2307910;77;51521;-73
2022/10/23 08:26:04;;;;;;;;;;;;;;;18.93;68.28;101034.41;2293692;76;51398;-74
2022/10/23 08:29:05;;;;;;;;;;;;;;;18.92;68.26;101034.05;2306691;76;49641;-73
2022/10/23 08:32:07;;;;;;;;;;;;;;;18.93;68.24;101037.56;2311172;77;50361;-73
2022/10/23 08:35:08;;;;;;;;;;;;;;;18.92;68.23;101042.10;2307382;76;50737;-74
2022/10/23 08:38:10;;;;;;;;;;;;;;;18.93;68.15;101039.77;2284451;77;51521;-74
2022/10/23 08:41:13;;;;;;;;;;;;;;;18.93;68.08;101041.11;2275449;77;50988;-73
2022/10/23 08:44:19;;;;;;;;;;;;;;;18.95;68.07;101038.23;2298650;77;51765;-74
2022/10/23 08:47:37;;;;;;;;;;;;;;;18.93;68.62;101039.77;2301859;77;50844;-73
2022/10/23 08:50:41;;;;;;;;;;;;;;;18.92;68.74;101031.38;2298446;76;51604;-74
2022/10/23 08:53:50;;;;;;;;;;;;;;;18.91;69.08;101026.20;2271570;77;52586;-74
2022/10/23 08:56:53;;;;;;;;;;;;;;;18.92;69.12;101027.86;2298196;77;50307;-74
2022/10/23 08:59:58;;;;;;;;;;;;;;;18.93;69.17;101029.05;2297543;77;50468;-74
2022/10/23 09:03:03;;;;;;;;;;;;;;;18.93;69.16;101033.06;2298278;77;50319;-74
2022/10/23 09:06:16;;;;;;;;;;;;;;;18.93;69.31;101026.36;2275310;76;49666;-74
2022/10/23 09:09:22;;;;;;;;;;;;;;;18.93;69.41;101018.80;2306365;76;50435;-74
2022/10/23 09:12:24;;;;;;;;;;;;;;;18.95;69.30;101026.68;2298285;77;50694;-73
2022/10/23 09:15:30;;;;;;;;;;;;;;;18.93;69.45;101031.73;2298708;76;50390;-73
2022/10/23 09:18:31;;;;;;;;;;;;;;;18.93;69.42;101031.73;2276098;77;51009;-73
2022/10/23 09:21:34;;;;;;;;;;;;;;;18.96;69.31;101022.97;2309890;77;51541;-74
2022/10/23 09:24:35;;;;;;;;;;;;;;;18.94;69.58;101024.51;2309692;77;51617;-73
2022/10/23 09:27:37;;;;;;;;;;;;;;;18.98;68.62;101019.61;2310003;76;50647;-74
2022/10/23 09:30:40;;;;;;;;;;;;;;;18.99;68.53;101019.96;2276325;77;49555;-73
2022/10/23 09:33:41;;;;;;;;;;;;;;;18.99;68.73;101017.28;2273075;77;51693;-74
2022/10/23 09:36:44;;;;;;;;;;;;;;;18.98;68.93;101015.59;2312301;76;51506;-73
2022/10/23 09:39:46;;;;;;;;;;;;;;;18.97;69.00;101017.95;2274687;77;52416;-74
2022/10/23 09:42:51;;;;;;;;;;;;;;;18.99;68.95;101018.62;2274175;77;51041;-73
2022/10/23 09:46:03;;;;;;;;;;;;;;;18.99;69.01;101015.94;2345566;75;51459;-73
2022/10/23 09:49:06;;;;;;;;;;;;;;;18.99;69.50;101018.62;2309868;77;50343;-73
2022/10/23 09:52:09;;;;;;;;;;;;;;;18.97;69.85;101017.95;2309819;77;51656;-73
2022/10/23 09:55:19;;;;;;;;;;;;;;;18.98;69.89;101017.77;2274710;77;51010;-74
2022/10/23 09:58:28;;;;;;;;;;;;;;;19.00;69.48;101014.92;2309208;77;50278;-74
2022/10/23 10:01:31;;;;;;;;;;;;;;;19.02;69.35;101014.24;2309904;77;50369;-73
2022/10/23 10:04:34;;;;;;;;;;;;;;;18.99;70.05;101011.41;2308910;77;50433;-73
2022/10/23 10:07:35;;;;;;;;;;;;;;;18.98;70.27;101011.57;2275478;77;50931;-73
2022/10/23 10:10:42;;;;;;;;;;;;;;;18.96;70.06;101003.72;2276490;77;50732;-73
2022/10/23 10:13:45;;;;;;;;;;;;;;;18.98;70.08;101006.20;2308610;77;50819;-74
2022/10/23 10:17:05;;;;;;;;;;;;;;;18.99;70.75;101003.88;2309893;77;50656;-74
2022/10/23 10:20:08;;;;;;;;;;;;;;;19.00;71.44;100996.14;2276260;77;49654;-73
2022/10/23 10:23:28;;;;;;;;;;;;;;;19.00;71.22;101002.34;2309886;77;50784;-73
2022/10/23 10:26:31;;;;;;;;;;;;;;;19.01;71.05;101001.34;2310015;76;50530;-74
2022/10/23 10:29:37;;;;;;;;;;;;;;;18.99;71.09;100993.15;2304738;77;50410;-75
2022/10/23 10:32:58;;;;;;;;;;;;;;;19.00;71.33;100986.76;2309376;76;50971;-74
2022/10/23 10:36:01;;;;;;;;;;;;;;;19.01;71.51;100986.59;2295155;77;51685;-75
2022/10/23 10:39:03;;;;;;;;;;;;;;;19.03;71.74;100988.56;2307896;76;50807;-75
2022/10/23 10:42:06;;;;;;;;;;;;;;;19.04;71.51;100982.72;2310898;77;50465;-76
2022/10/23 10:45:16;;;;;;;;;;;;;;;19.06;71.03;100980.67;2277312;77;51803;-76
2022/10/23 10:48:19;;;;;;;;;;;;;;;19.06;71.58;100982.02;2312677;76;51526;-76
2022/10/23 10:51:22;;;;;;;;;;;;;;;19.07;71.71;100980.50;2312652;77;50792;-77
2022/10/23 10:54:35;;;;;;;;;;;;;;;19.08;71.55;100976.80;2312219;77;49942;-77
2022/10/23 10:57:38;;;;;;;;;;;;;;;19.08;71.58;100969.27;2272916;77;52751;-76
2022/10/23 11:00:40;;;;;;;;;;;;;;;19.06;71.71;100966.78;2301992;76;50500;-76
2022/10/23 11:03:52;;;;;;;;;;;;;;;19.05;71.63;100959.73;2311683;77;50749;-76
2022/10/23 11:06:54;;;;;;;;;;;;;;;19.06;71.42;100960.56;2297207;75;50240;-76
2022/10/23 11:09:56;;;;;;;;;;;;;;;19.06;71.37;100952.52;2279171;77;50123;-76
2022/10/23 11:12:57;;;;;;;;;;;;;;;19.06;71.30;100948.48;2313091;77;50164;-76
2022/10/23 11:16:00;;;;;;;;;;;;;;;19.05;71.24;100942.81;2312931;77;50642;-77
2022/10/23 11:19:05;;;;;;;;;;;;;;;19.05;71.14;100940.12;2313169;77;50701;-77
2022/10/23 11:22:08;;;;;;;;;;;;;;;19.03;71.12;100926.05;2278229;77;50535;-75
2022/10/23 11:25:28;;;;;;;;;;;;;;;19.04;71.04;100919.19;2310720;76;50804;-76
2022/10/23 11:28:48;;;;;;;;;;;;;;;19.08;70.58;100917.79;2304871;75;50785;-76
2022/10/23 11:31:51;;;;;;;;;;;;;;;19.10;70.60;100913.60;2314558;76;50649;-76
2022/10/23 11:34:57;;;;;;;;;;;;;;;19.11;70.39;100911.23;2299101;77;51867;-75
2022/10/23 11:38:15;;;;;;;;;;;;;;;19.11;70.40;100902.70;2274305;77;50380;-75
2022/10/23 11:41:21;;;;;;;;;;;;;;;19.11;70.33;100896.48;2261417;78;50689;-75
2022/10/23 11:44:43;;;;;;;;;;;;;;;19.13;70.39;100892.61;2260991;78;50472;-74
2022/10/23 11:47:44;;;;;;;;;;;;;;;19.10;70.26;100898.34;2236324;78;51653;-73
2022/10/23 11:50:48;;;;;;;;;;;;;;;19.10;70.74;100886.78;2278105;76;51574;-73
2022/10/23 11:53:50;;;;;;;;;;;;;;;19.10;70.80;100889.46;2338478;76;50385;-74
2022/10/23 11:57:09;;;;;;;;;;;;;;;19.10;70.84;100886.78;2338152;76;50391;-74
2022/10/23 12:00:21;;;;;;;;;;;;;;;19.09;70.73;100873.88;2287491;76;50147;-73
2022/10/23 12:03:24;;;;;;;;;;;;;;;19.08;71.34;100864.66;2305711;76;50268;-73
2022/10/23 12:06:26;;;;;;;;;;;;;;;19.07;71.34;100863.84;2303238;77;51632;-75
2022/10/23 12:09:34;;;;;;;;;;;;;;;19.07;71.33;100867.03;2309040;77;50396;-75
2022/10/23 12:12:42;;;;;;;;;;;;;;;19.08;71.10;100862.81;2310304;77;22467;-75
2022/10/23 12:15:39;;;;;;;;;;;;;;;19.07;71.22;100867.86;2276053;77;22503;-72
2022/10/23 12:18:45;;;;;;;;;;;;;;;19.09;71.01;100858.30;2275949;77;50984;-73
2022/10/23 12:21:47;;;;;;;;;;;;;;;19.10;71.11;100861.30;2309645;77;50271;-73
2022/10/23 12:24:50;;;;;;;;;;;;;;;19.09;71.05;100851.09;2275555;75;49692;-75
2022/10/23 12:27:52;;;;;;;;;;;;;;;19.10;71.15;100845.20;2290157;75;50468;-75
2022/10/23 12:31:05;;;;;;;;;;;;;;;19.10;70.84;100849.23;2298342;77;51613;-75
2022/10/23 12:34:17;;;;;;;;;;;;;;;19.10;69.91;100837.16;2329896;76;50967;-75
2022/10/23 12:37:26;;;;;;;;;;;;;;;19.12;69.94;100831.95;2301200;76;50422;-75
2022/10/23 12:40:32;;;;;;;;;;;;;;;19.10;69.47;100830.45;2298654;76;50648;-73
2022/10/23 12:43:31;;;;;;;;;;;;;;;19.13;68.91;100838.13;2311320;75;22304;-75
2022/10/23 12:46:34;;;;;;;;;;;;;;;19.15;68.65;100829.41;2357795;75;50428;-75
2022/10/23 12:49:35;;;;;;;;;;;;;;;19.14;68.23;100823.21;2281726;77;51007;-74
2022/10/23 12:52:38;;;;;;;;;;;;;;;19.12;68.53;100822.55;2269394;77;50339;-76
2022/10/23 12:55:47;;;;;;;;;;;;;;;19.09;68.35;100818.91;2290983;77;51411;-73
2022/10/23 12:58:50;;;;;;;;;;;;;;;19.10;67.97;100809.83;2291150;77;50770;-77
2022/10/23 13:01:53;;;;;;;;;;;;;;;19.12;68.26;100804.30;2267421;77;51190;-77
2022/10/23 13:04:55;;;;;;;;;;;;;;;19.18;68.43;100803.55;2268665;77;51532;-75
2022/10/23 13:07:56;;;;;;;;;;;;;;;19.18;68.50;100791.48;2314848;76;51622;-75
2022/10/23 13:10:58;;;;;;;;;;;;;;;19.14;69.12;100792.37;2309629;77;51612;-75
2022/10/23 13:14:00;;;;;;;;;;;;;;;19.13;69.40;100784.48;2271586;77;50985;-75
2022/10/23 13:17:03;;;;;;;;;;;;;;;19.18;69.09;100770.02;2296341;77;51446;-74
2022/10/23 13:20:08;;;;;;;;;;;;;;;19.22;68.93;100771.84;2306968;76;50637;-74
2022/10/23 13:23:11;;;;;;;;;;;;;;;19.23;68.90;100764.94;2338494;76;51476;-75
2022/10/23 13:26:32;;;;;;;;;;;;;;;19.26;69.10;100765.91;2338521;76;51562;-74
2022/10/23 13:29:33;;;;;;;;;;;;;;;19.25;69.22;100762.08;2338659;76;51537;-75
2022/10/23 13:32:35;;;;;;;;;;;;;;;19.22;69.32;100763.28;2338606;76;50728;-76
2022/10/23 13:35:36;;;;;;;;;;;;;;;19.27;69.17;100763.56;2303757;76;50964;-74
2022/10/23 13:38:40;;;;;;;;;;;;;;;19.27;68.41;100766.25;2270765;77;51016;-76
2022/10/23 13:41:43;;;;;;;;;;;;;;;19.24;67.74;100761.73;2285652;77;52928;-74
2022/10/23 13:44:44;;;;;;;;;;;;;;;19.23;68.10;100764.11;2293908;76;51536;-75
2022/10/23 13:47:46;;;;;;;;;;;;;;;19.25;68.17;100758.88;2297941;77;51504;-75
2022/10/23 13:50:48;;;;;;;;;;;;;;;19.25;68.03;100752.17;2272707;75;50990;-76
2022/10/23 13:53:49;;;;;;;;;;;;;;;19.24;68.66;100746.98;2299926;75;51851;-75
2022/10/23 13:56:51;;;;;;;;;;;;;;;19.28;68.80;100753.14;2306972;76;51537;-76
2022/10/23 13:59:52;;;;;;;;;;;;;;;19.33;68.79;100748.56;2259983;76;50643;-74
2022/10/23 14:02:54;;;;;;;;;;;;;;;19.33;68.72;100745.37;2259073;78;50150;-75
2022/10/23 14:05:56;;;;;;;;;;;;;;;19.32;68.82;100744.23;2310386;76;51581;-76
2022/10/23 14:08:57;;;;;;;;;;;;;;;19.33;68.85;100740.00;2310126;76;51495;-78
2022/10/23 14:11:59;;;;;;;;;;;;;;;19.31;68.83;100732.64;2324095;76;51460;-79
2022/10/23 14:15:00;;;;;;;;;;;;;;;19.37;68.93;100737.80;2311537;76;50104;-77
2022/10/23 14:18:02;;;;;;;;;;;;;;;19.39;68.82;100741.11;2324051;76;51400;-79
2022/10/23 14:21:04;;;;;;;;;;;;;;;19.40;68.79;100730.72;2323923;76;51529;-78
2022/10/23 14:24:06;;;;;;;;;;;;;;;19.42;68.69;100733.19;2321398;75;50285;-77
2022/10/23 14:27:07;;;;;;;;;;;;;;;19.38;68.81;100737.29;2292444;75;51195;-79
2022/10/23 14:30:09;;;;;;;;;;;;;;;19.37;69.04;100728.41;2312695;75;51475;-78
2022/10/23 14:33:11;;;;;;;;;;;;;;;19.42;68.92;100729.17;2273552;77;51597;-79
2022/10/23 14:36:12;;;;;;;;;;;;;;;19.44;68.82;100723.11;2300737;76;51472;-78
2022/10/23 14:39:14;;;;;;;;;;;;;;;19.44;68.84;100715.06;2298697;76;52473;-77
2022/10/23 14:42:16;;;;;;;;;;;;;;;19.42;68.79;100717.09;2323771;75;51393;-78
2022/10/23 14:45:17;;;;;;;;;;;;;;;19.43;68.73;100717.44;2323535;75;50786;-77
2022/10/23 14:48:19;;;;;;;;;;;;;;;19.44;68.75;100709.70;2324033;76;50343;-76
2022/10/23 14:51:24;;;;;;;;;;;;;;;19.45;68.75;100701.98;2323562;76;51290;-79
2022/10/23 14:54:28;;;;;;;;;;;;;;;19.44;68.93;100706.50;2350807;74;52440;-77
2022/10/23 14:57:29;;;;;;;;;;;;;;;19.45;68.75;100706.02;2323038;76;22420;-76
2022/10/23 15:00:30;;;;;;;;;;;;;;;19.45;68.60;100697.96;2331410;76;50919;-76
2022/10/23 15:03:32;;;;;;;;;;;;;;;19.43;68.50;100698.13;2298781;76;51368;-76
2022/10/23 15:06:34;;;;;;;;;;;;;;;19.42;68.49;100705.02;2312350;76;50405;-76
2022/10/23 15:09:36;;;;;;;;;;;;;;;19.38;68.46;100697.86;2322561;76;50269;-76
2022/10/23 15:12:37;;;;;;;;;;;;;;;19.37;68.42;100692.19;2297398;76;51552;-76
2022/10/23 15:15:39;;;;;;;;;;;;;;;19.35;68.38;100696.39;2294448;76;50977;-76
2022/10/23 15:18:41;;;;;;;;;;;;;;;19.33;68.42;100690.37;2319596;75;51502;-76
2022/10/23 15:21:42;;;;;;;;;;;;;;;19.31;68.43;100681.67;2323929;76;51433;-77
2022/10/23 15:24:44;;;;;;;;;;;;;;;19.29;68.41;100674.34;2323778;76;50379;-76
2022/10/23 15:27:45;;;;;;;;;;;;;;;19.28;68.41;100671.31;2310602;76;49692;-76
2022/10/23 15:30:47;;;;;;;;;;;;;;;19.28;68.37;100674.52;2303583;76;50232;-75
2022/10/23 15:33:48;;;;;;;;;;;;;;;19.25;68.37;100664.98;2293301;75;50782;-75
2022/10/23 15:36:50;;;;;;;;;;;;;;;19.26;68.38;100661.80;2293509;76;53390;-77
2022/10/23 15:39:52;;;;;;;;;;;;;;;19.22;68.77;100651.95;2268070;76;50050;-77